sensor_id;sensor_type;location;lat;lon;timestamp;pressure;altitude;pressure_sealevel;temperature
45701;BMP280;36277;32.852;-116.998;2023-03-01T00:02:00;100126.50;;;23.32
45701;BMP280;36277;32.852;-116.998;2023-03-01T00:04:27;100134.88;;;23.38
45701;BMP280;36277;32.852;-116.998;2023-03-01T00:06:53;100132.13;;;23.38
45701;BMP280;36277;32.852;-116.998;2023-03-01T00:09:20;100130.03;;;23.40
45701;BMP280;36277;32.852;-116.998;2023-03-01T00:11:46;100125.66;;;23.46
45701;BMP280;36277;32.852;-116.998;2023-03-01T00:14:13;100120.63;;;23.49
45701;BMP280;36277;32.852;-116.998;2023-03-01T00:16:42;100120.72;;;23.56
45701;BMP280;36277;32.852;-116.998;2023-03-01T00:19:13;100122.91;;;23.60
45701;BMP280;36277;32.852;-116.998;2023-03-01T00:21:40;100119.09;;;23.61
45701;BMP280;36277;32.852;-116.998;2023-03-01T00:24:07;100115.97;;;23.64
45701;BMP280;36277;32.852;-116.998;2023-03-01T00:26:34;100117.84;;;23.64
45701;BMP280;36277;32.852;-116.998;2023-03-01T00:29:00;100119.41;;;23.66
45701;BMP280;36277;32.852;-116.998;2023-03-01T00:31:29;100123.84;;;23.67
45701;BMP280;36277;32.852;-116.998;2023-03-01T00:33:58;100122.59;;;23.70
45701;BMP280;36277;32.852;-116.998;2023-03-01T00:36:26;100133.38;;;23.79
45701;BMP280;36277;32.852;-116.998;2023-03-01T00:38:53;100132.41;;;23.87
45701;BMP280;36277;32.852;-116.998;2023-03-01T00:41:20;100129.09;;;23.91
45701;BMP280;36277;32.852;-116.998;2023-03-01T00:43:49;100132.31;;;23.95
45701;BMP280;36277;32.852;-116.998;2023-03-01T00:46:18;100129.75;;;23.93
45701;BMP280;36277;32.852;-116.998;2023-03-01T00:48:45;100148.00;;;23.94
45701;BMP280;36277;32.852;-116.998;2023-03-01T00:51:16;100142.94;;;23.98
45701;BMP280;36277;32.852;-116.998;2023-03-01T00:53:43;100143.78;;;23.98
45701;BMP280;36277;32.852;-116.998;2023-03-01T00:56:12;100149.31;;;23.98
45701;BMP280;36277;32.852;-116.998;2023-03-01T00:58:39;100144.66;;;23.99
45701;BMP280;36277;32.852;-116.998;2023-03-01T01:01:12;100139.91;;;23.93
45701;BMP280;36277;32.852;-116.998;2023-03-01T01:03:50;100146.00;;;23.88
45701;BMP280;36277;32.852;-116.998;2023-03-01T01:06:30;100138.78;;;23.87
45701;BMP280;36277;32.852;-116.998;2023-03-01T01:08:57;100140.28;;;23.75
45701;BMP280;36277;32.852;-116.998;2023-03-01T01:11:27;100146.44;;;23.77
45701;BMP280;36277;32.852;-116.998;2023-03-01T01:13:54;100151.13;;;23.77
45701;BMP280;36277;32.852;-116.998;2023-03-01T01:16:23;100135.44;;;23.77
45701;BMP280;36277;32.852;-116.998;2023-03-01T01:18:49;100143.03;;;23.75
45701;BMP280;36277;32.852;-116.998;2023-03-01T01:21:18;100150.13;;;23.78
45701;BMP280;36277;32.852;-116.998;2023-03-01T01:23:46;100148.53;;;23.75
45701;BMP280;36277;32.852;-116.998;2023-03-01T01:26:22;100154.72;;;23.77
45701;BMP280;36277;32.852;-116.998;2023-03-01T01:28:49;100162.69;;;23.72
45701;BMP280;36277;32.852;-116.998;2023-03-01T01:31:16;100153.59;;;23.72
45701;BMP280;36277;32.852;-116.998;2023-03-01T01:33:43;100164.41;;;23.73
45701;BMP280;36277;32.852;-116.998;2023-03-01T01:36:10;100170.28;;;23.70
45701;BMP280;36277;32.852;-116.998;2023-03-01T01:38:38;100171.16;;;23.71
45701;BMP280;36277;32.852;-116.998;2023-03-01T01:41:05;100173.25;;;23.69
45701;BMP280;36277;32.852;-116.998;2023-03-01T01:46:30;100175.53;;;23.65
45701;BMP280;36277;32.852;-116.998;2023-03-01T01:49:02;100170.03;;;23.65
45701;BMP280;36277;32.852;-116.998;2023-03-01T01:51:36;100173.84;;;23.64
45701;BMP280;36277;32.852;-116.998;2023-03-01T01:54:14;100171.25;;;23.63
45701;BMP280;36277;32.852;-116.998;2023-03-01T01:56:46;100159.78;;;23.59
45701;BMP280;36277;32.852;-116.998;2023-03-01T01:59:14;100161.00;;;23.57
45701;BMP280;36277;32.852;-116.998;2023-03-01T02:01:41;100158.81;;;23.52
45701;BMP280;36277;32.852;-116.998;2023-03-01T02:04:07;100158.13;;;23.50
45701;BMP280;36277;32.852;-116.998;2023-03-01T02:06:44;100155.00;;;23.53
45701;BMP280;36277;32.852;-116.998;2023-03-01T02:09:19;100151.13;;;23.48
45701;BMP280;36277;32.852;-116.998;2023-03-01T02:11:47;100156.81;;;23.46
45701;BMP280;36277;32.852;-116.998;2023-03-01T02:14:16;100160.59;;;23.45
45701;BMP280;36277;32.852;-116.998;2023-03-01T02:16:43;100148.28;;;23.41
45701;BMP280;36277;32.852;-116.998;2023-03-01T02:19:20;100150.81;;;23.43
45701;BMP280;36277;32.852;-116.998;2023-03-01T02:22:06;100151.03;;;23.41
45701;BMP280;36277;32.852;-116.998;2023-03-01T02:27:17;100164.50;;;23.36
45701;BMP280;36277;32.852;-116.998;2023-03-01T02:29:47;100165.72;;;23.34
45701;BMP280;36277;32.852;-116.998;2023-03-01T02:32:14;100161.75;;;23.36
45701;BMP280;36277;32.852;-116.998;2023-03-01T02:34:41;100159.00;;;23.36
45701;BMP280;36277;32.852;-116.998;2023-03-01T02:37:13;100160.72;;;23.37
45701;BMP280;36277;32.852;-116.998;2023-03-01T02:39:47;100149.69;;;23.37
45701;BMP280;36277;32.852;-116.998;2023-03-01T02:42:22;100146.94;;;23.37
45701;BMP280;36277;32.852;-116.998;2023-03-01T02:44:50;100153.88;;;23.33
45701;BMP280;36277;32.852;-116.998;2023-03-01T02:47:16;100146.63;;;23.32
45701;BMP280;36277;32.852;-116.998;2023-03-01T02:49:42;100145.75;;;23.32
45701;BMP280;36277;32.852;-116.998;2023-03-01T02:54:48;100155.94;;;23.31
45701;BMP280;36277;32.852;-116.998;2023-03-01T02:57:18;100141.88;;;23.26
45701;BMP280;36277;32.852;-116.998;2023-03-01T02:59:44;100151.19;;;23.25
45701;BMP280;36277;32.852;-116.998;2023-03-01T03:02:24;100149.09;;;23.27
45701;BMP280;36277;32.852;-116.998;2023-03-01T03:05:18;100146.41;;;23.19
45701;BMP280;36277;32.852;-116.998;2023-03-01T03:07:46;100134.75;;;23.17
45701;BMP280;36277;32.852;-116.998;2023-03-01T03:10:22;100129.06;;;23.19
45701;BMP280;36277;32.852;-116.998;2023-03-01T03:12:56;100135.13;;;23.14
45701;BMP280;36277;32.852;-116.998;2023-03-01T03:15:24;100143.50;;;22.98
45701;BMP280;36277;32.852;-116.998;2023-03-01T03:17:52;100140.28;;;22.95
45701;BMP280;36277;32.852;-116.998;2023-03-01T03:20:22;100142.28;;;23.01
45701;BMP280;36277;32.852;-116.998;2023-03-01T03:22:53;100144.69;;;23.04
45701;BMP280;36277;32.852;-116.998;2023-03-01T03:25:22;100142.16;;;22.95
45701;BMP280;36277;32.852;-116.998;2023-03-01T03:27:50;100139.41;;;22.95
45701;BMP280;36277;32.852;-116.998;2023-03-01T03:30:27;100136.84;;;22.93
45701;BMP280;36277;32.852;-116.998;2023-03-01T03:32:55;100125.84;;;22.93
45701;BMP280;36277;32.852;-116.998;2023-03-01T03:35:28;100125.28;;;22.98
45701;BMP280;36277;32.852;-116.998;2023-03-01T03:38:04;100123.56;;;22.97
45701;BMP280;36277;32.852;-116.998;2023-03-01T03:40:38;100129.06;;;22.97
45701;BMP280;36277;32.852;-116.998;2023-03-01T03:43:07;100137.16;;;22.98
45701;BMP280;36277;32.852;-116.998;2023-03-01T03:45:35;100139.53;;;23.01
45701;BMP280;36277;32.852;-116.998;2023-03-01T03:48:03;100146.56;;;23.03
45701;BMP280;36277;32.852;-116.998;2023-03-01T03:50:30;100138.97;;;23.05
45701;BMP280;36277;32.852;-116.998;2023-03-01T03:52:57;100143.81;;;23.03
45701;BMP280;36277;32.852;-116.998;2023-03-01T03:55:23;100142.75;;;23.04
45701;BMP280;36277;32.852;-116.998;2023-03-01T03:57:53;100148.94;;;23.06
45701;BMP280;36277;32.852;-116.998;2023-03-01T04:00:21;100141.84;;;23.12
45701;BMP280;36277;32.852;-116.998;2023-03-01T04:02:50;100147.19;;;23.13
45701;BMP280;36277;32.852;-116.998;2023-03-01T04:05:18;100147.19;;;23.13
45701;BMP280;36277;32.852;-116.998;2023-03-01T04:07:45;100145.28;;;23.14
45701;BMP280;36277;32.852;-116.998;2023-03-01T04:10:18;100146.81;;;23.16
45701;BMP280;36277;32.852;-116.998;2023-03-01T04:12:44;100147.19;;;23.13
45701;BMP280;36277;32.852;-116.998;2023-03-01T04:15:11;100146.31;;;23.13
45701;BMP280;36277;32.852;-116.998;2023-03-01T04:17:45;100154.41;;;23.14
45701;BMP280;36277;32.852;-116.998;2023-03-01T04:20:21;100142.16;;;23.17
45701;BMP280;36277;32.852;-116.998;2023-03-01T04:22:52;100141.38;;;23.08
45701;BMP280;36277;32.852;-116.998;2023-03-01T04:25:23;100144.81;;;23.10
45701;BMP280;36277;32.852;-116.998;2023-03-01T04:27:49;100151.47;;;23.16
45701;BMP280;36277;32.852;-116.998;2023-03-01T04:30:16;100152.03;;;23.11
45701;BMP280;36277;32.852;-116.998;2023-03-01T04:32:42;100142.34;;;23.15
45701;BMP280;36277;32.852;-116.998;2023-03-01T04:35:09;100142.34;;;23.15
45701;BMP280;36277;32.852;-116.998;2023-03-01T04:37:35;100143.88;;;23.18
45701;BMP280;36277;32.852;-116.998;2023-03-01T04:40:03;100158.88;;;23.15
45701;BMP280;36277;32.852;-116.998;2023-03-01T04:42:42;100155.75;;;23.18
45701;BMP280;36277;32.852;-116.998;2023-03-01T04:45:09;100143.50;;;23.21
45701;BMP280;36277;32.852;-116.998;2023-03-01T04:47:43;100145.50;;;23.27
45701;BMP280;36277;32.852;-116.998;2023-03-01T04:50:16;100140.38;;;23.24
45701;BMP280;36277;32.852;-116.998;2023-03-01T04:52:44;100138.75;;;23.29
45701;BMP280;36277;32.852;-116.998;2023-03-01T04:55:12;100136.09;;;23.36
45701;BMP280;36277;32.852;-116.998;2023-03-01T04:57:39;100134.59;;;23.48
45701;BMP280;36277;32.852;-116.998;2023-03-01T05:00:09;100138.56;;;23.60
45701;BMP280;36277;32.852;-116.998;2023-03-01T05:02:59;100138.75;;;23.73
45701;BMP280;36277;32.852;-116.998;2023-03-01T05:07:56;100137.44;;;23.98
45701;BMP280;36277;32.852;-116.998;2023-03-01T05:10:25;100136.75;;;24.10
45701;BMP280;36277;32.852;-116.998;2023-03-01T05:12:52;100124.56;;;24.19
45701;BMP280;36277;32.852;-116.998;2023-03-01T05:15:18;100125.97;;;24.29
45701;BMP280;36277;32.852;-116.998;2023-03-01T05:17:48;100130.38;;;24.45
45701;BMP280;36277;32.852;-116.998;2023-03-01T05:20:15;100125.00;;;24.58
45701;BMP280;36277;32.852;-116.998;2023-03-01T05:22:41;100120.69;;;24.70
45701;BMP280;36277;32.852;-116.998;2023-03-01T05:25:07;100126.72;;;24.80
45701;BMP280;36277;32.852;-116.998;2023-03-01T05:27:34;100116.19;;;24.90
45701;BMP280;36277;32.852;-116.998;2023-03-01T05:30:02;100113.09;;;24.99
45701;BMP280;36277;32.852;-116.998;2023-03-01T05:32:47;100114.03;;;25.13
45701;BMP280;36277;32.852;-116.998;2023-03-01T05:35:15;100109.47;;;25.20
45701;BMP280;36277;32.852;-116.998;2023-03-01T05:37:51;100110.59;;;25.31
45701;BMP280;36277;32.852;-116.998;2023-03-01T05:40:20;100108.75;;;25.38
45701;BMP280;36277;32.852;-116.998;2023-03-01T05:42:50;100109.88;;;25.50
45701;BMP280;36277;32.852;-116.998;2023-03-01T05:45:17;100097.75;;;25.51
45701;BMP280;36277;32.852;-116.998;2023-03-01T05:47:45;100100.69;;;25.43
45701;BMP280;36277;32.852;-116.998;2023-03-01T05:52:38;100096.13;;;25.29
45701;BMP280;36277;32.852;-116.998;2023-03-01T05:55:04;100091.66;;;25.28
45701;BMP280;36277;32.852;-116.998;2023-03-01T05:57:31;100083.13;;;25.24
45701;BMP280;36277;32.852;-116.998;2023-03-01T05:59:57;100077.59;;;25.24
45701;BMP280;36277;32.852;-116.998;2023-03-01T06:02:23;100082.25;;;25.17
45701;BMP280;36277;32.852;-116.998;2023-03-01T06:04:49;100093.47;;;25.15
45701;BMP280;36277;32.852;-116.998;2023-03-01T06:07:16;100087.25;;;25.13
45701;BMP280;36277;32.852;-116.998;2023-03-01T06:09:42;100090.84;;;25.07
45701;BMP280;36277;32.852;-116.998;2023-03-01T06:12:08;100082.50;;;25.01
45701;BMP280;36277;32.852;-116.998;2023-03-01T06:14:35;100081.66;;;25.00
45701;BMP280;36277;32.852;-116.998;2023-03-01T06:17:01;100088.88;;;25.01
45701;BMP280;36277;32.852;-116.998;2023-03-01T06:19:27;100086.91;;;24.95
45701;BMP280;36277;32.852;-116.998;2023-03-01T06:21:53;100082.66;;;24.93
45701;BMP280;36277;32.852;-116.998;2023-03-01T06:24:20;100079.66;;;24.88
45701;BMP280;36277;32.852;-116.998;2023-03-01T06:26:46;100076.22;;;24.86
45701;BMP280;36277;32.852;-116.998;2023-03-01T06:29:12;100062.81;;;24.83
45701;BMP280;36277;32.852;-116.998;2023-03-01T06:31:40;100059.34;;;24.74
45701;BMP280;36277;32.852;-116.998;2023-03-01T06:34:06;100058.47;;;24.74
45701;BMP280;36277;32.852;-116.998;2023-03-01T06:36:32;100060.94;;;24.62
45701;BMP280;36277;32.852;-116.998;2023-03-01T06:38:58;100053.91;;;24.60
45701;BMP280;36277;32.852;-116.998;2023-03-01T06:41:25;100060.69;;;24.57
45701;BMP280;36277;32.852;-116.998;2023-03-01T06:43:51;100052.81;;;24.54
45701;BMP280;36277;32.852;-116.998;2023-03-01T06:46:18;100053.38;;;24.50
45701;BMP280;36277;32.852;-116.998;2023-03-01T06:48:44;100044.19;;;24.43
45701;BMP280;36277;32.852;-116.998;2023-03-01T06:51:10;100052.84;;;24.40
45701;BMP280;36277;32.852;-116.998;2023-03-01T06:53:37;100051.53;;;24.36
45701;BMP280;36277;32.852;-116.998;2023-03-01T06:56:03;100051.72;;;24.34
45701;BMP280;36277;32.852;-116.998;2023-03-01T06:58:30;100046.81;;;24.30
45701;BMP280;36277;32.852;-116.998;2023-03-01T07:00:56;100042.72;;;24.26
45701;BMP280;36277;32.852;-116.998;2023-03-01T07:03:22;100042.28;;;24.22
45701;BMP280;36277;32.852;-116.998;2023-03-01T07:05:50;100043.13;;;24.23
45701;BMP280;36277;32.852;-116.998;2023-03-01T07:08:20;100029.94;;;24.18
45701;BMP280;36277;32.852;-116.998;2023-03-01T07:10:46;100022.25;;;24.14
45701;BMP280;36277;32.852;-116.998;2023-03-01T07:13:46;100021.88;;;24.17
45701;BMP280;36277;32.852;-116.998;2023-03-01T07:16:12;100010.69;;;24.04
45701;BMP280;36277;32.852;-116.998;2023-03-01T07:18:40;100017.91;;;24.05
45701;BMP280;36277;32.852;-116.998;2023-03-01T07:21:08;100001.75;;;24.02
45701;BMP280;36277;32.852;-116.998;2023-03-01T07:23:34;99989.41;;;23.98
45701;BMP280;36277;32.852;-116.998;2023-03-01T07:26:01;99993.22;;;23.97
45701;BMP280;36277;32.852;-116.998;2023-03-01T07:28:28;99982.41;;;23.96
45701;BMP280;36277;32.852;-116.998;2023-03-01T07:30:54;99984.03;;;23.90
45701;BMP280;36277;32.852;-116.998;2023-03-01T07:33:21;99992.69;;;23.87
45701;BMP280;36277;32.852;-116.998;2023-03-01T07:35:47;99976.56;;;23.84
45701;BMP280;36277;32.852;-116.998;2023-03-01T07:38:14;99970.72;;;23.94
45701;BMP280;36277;32.852;-116.998;2023-03-01T07:40:40;99975.22;;;24.01
45701;BMP280;36277;32.852;-116.998;2023-03-01T07:43:06;99968.28;;;24.05
45701;BMP280;36277;32.852;-116.998;2023-03-01T07:45:32;99966.31;;;23.99
45701;BMP280;36277;32.852;-116.998;2023-03-01T07:47:59;99956.75;;;23.95
45701;BMP280;36277;32.852;-116.998;2023-03-01T07:50:25;99955.44;;;23.91
45701;BMP280;36277;32.852;-116.998;2023-03-01T07:52:52;99964.09;;;23.88
45701;BMP280;36277;32.852;-116.998;2023-03-01T07:55:18;99958.53;;;23.82
45701;BMP280;36277;32.852;-116.998;2023-03-01T07:57:45;99953.84;;;23.82
45701;BMP280;36277;32.852;-116.998;2023-03-01T08:00:12;99951.09;;;23.82
45701;BMP280;36277;32.852;-116.998;2023-03-01T08:02:38;99954.59;;;23.76
45701;BMP280;36277;32.852;-116.998;2023-03-01T08:05:08;99944.44;;;23.77
45701;BMP280;36277;32.852;-116.998;2023-03-01T08:07:35;99951.38;;;23.73
45701;BMP280;36277;32.852;-116.998;2023-03-01T08:10:01;99943.72;;;23.68
45701;BMP280;36277;32.852;-116.998;2023-03-01T08:12:28;99951.31;;;23.66
45701;BMP280;36277;32.852;-116.998;2023-03-01T08:14:54;99933.47;;;23.62
45701;BMP280;36277;32.852;-116.998;2023-03-01T08:17:20;99943.59;;;23.62
45701;BMP280;36277;32.852;-116.998;2023-03-01T08:19:47;99945.72;;;23.60
45701;BMP280;36277;32.852;-116.998;2023-03-01T08:22:13;99939.75;;;23.56
45701;BMP280;36277;32.852;-116.998;2023-03-01T08:24:39;99931.19;;;23.51
45701;BMP280;36277;32.852;-116.998;2023-03-01T08:27:06;99917.81;;;23.48
45701;BMP280;36277;32.852;-116.998;2023-03-01T08:29:33;99931.59;;;23.48
45701;BMP280;36277;32.852;-116.998;2023-03-01T08:31:59;99930.69;;;23.41
45701;BMP280;36277;32.852;-116.998;2023-03-01T08:34:26;99938.28;;;23.39
45701;BMP280;36277;32.852;-116.998;2023-03-01T08:36:52;99933.81;;;23.38
45701;BMP280;36277;32.852;-116.998;2023-03-01T08:39:19;99928.69;;;23.35
45701;BMP280;36277;32.852;-116.998;2023-03-01T08:41:46;99927.59;;;23.30
45701;BMP280;36277;32.852;-116.998;2023-03-01T08:44:13;99922.25;;;23.28
45701;BMP280;36277;32.852;-116.998;2023-03-01T08:46:42;99909.72;;;23.26
45701;BMP280;36277;32.852;-116.998;2023-03-01T08:49:15;99915.78;;;23.21
45701;BMP280;36277;32.852;-116.998;2023-03-01T08:51:42;99909.00;;;23.17
45701;BMP280;36277;32.852;-116.998;2023-03-01T08:54:29;99898.53;;;23.13
45701;BMP280;36277;32.852;-116.998;2023-03-01T08:56:56;99907.66;;;23.13
45701;BMP280;36277;32.852;-116.998;2023-03-01T08:59:25;99907.66;;;23.13
45701;BMP280;36277;32.852;-116.998;2023-03-01T09:01:52;99903.22;;;23.12
45701;BMP280;36277;32.852;-116.998;2023-03-01T09:04:18;99890.09;;;23.14
45701;BMP280;36277;32.852;-116.998;2023-03-01T09:06:45;99886.03;;;23.10
45701;BMP280;36277;32.852;-116.998;2023-03-01T09:09:14;99873.97;;;23.11
45701;BMP280;36277;32.852;-116.998;2023-03-01T09:11:42;99869.19;;;23.05
45701;BMP280;36277;32.852;-116.998;2023-03-01T09:14:09;99865.41;;;23.06
45701;BMP280;36277;32.852;-116.998;2023-03-01T09:16:35;99857.53;;;23.03
45701;BMP280;36277;32.852;-116.998;2023-03-01T09:19:03;99860.28;;;23.03
45701;BMP280;36277;32.852;-116.998;2023-03-01T09:21:29;99858.78;;;23.01
45701;BMP280;36277;32.852;-116.998;2023-03-01T09:23:57;99829.56;;;23.00
45701;BMP280;36277;32.852;-116.998;2023-03-01T09:26:24;99853.44;;;22.99
45701;BMP280;36277;32.852;-116.998;2023-03-01T09:28:53;99847.78;;;23.01
45701;BMP280;36277;32.852;-116.998;2023-03-01T09:31:21;99839.03;;;22.98
45701;BMP280;36277;32.852;-116.998;2023-03-01T09:33:49;99830.09;;;22.96
45701;BMP280;36277;32.852;-116.998;2023-03-01T09:36:21;99819.50;;;22.93
45701;BMP280;36277;32.852;-116.998;2023-03-01T09:38:48;99816.28;;;22.89
45701;BMP280;36277;32.852;-116.998;2023-03-01T09:43:47;99797.59;;;22.85
45701;BMP280;36277;32.852;-116.998;2023-03-01T09:46:15;99798.38;;;22.79
45701;BMP280;36277;32.852;-116.998;2023-03-01T09:51:29;99783.56;;;22.80
45701;BMP280;36277;32.852;-116.998;2023-03-01T09:53:57;99774.75;;;22.70
45701;BMP280;36277;32.852;-116.998;2023-03-01T09:59:23;99772.50;;;22.73
45701;BMP280;36277;32.852;-116.998;2023-03-01T10:05:19;99747.38;;;22.62
45701;BMP280;36277;32.852;-116.998;2023-03-01T10:08:27;99739.50;;;22.59
45701;BMP280;36277;32.852;-116.998;2023-03-01T10:10:53;99735.44;;;22.55
45701;BMP280;36277;32.852;-116.998;2023-03-01T10:13:28;99729.75;;;22.56
45701;BMP280;36277;32.852;-116.998;2023-03-01T10:15:59;99731.84;;;22.54
45701;BMP280;36277;32.852;-116.998;2023-03-01T10:18:31;99727.19;;;22.55
45701;BMP280;36277;32.852;-116.998;2023-03-01T10:21:09;99716.47;;;22.60
45701;BMP280;36277;32.852;-116.998;2023-03-01T10:23:39;99726.06;;;22.49
45701;BMP280;36277;32.852;-116.998;2023-03-01T10:29:08;99724.00;;;22.51
45701;BMP280;36277;32.852;-116.998;2023-03-01T10:31:47;99706.63;;;22.51
45701;BMP280;36277;32.852;-116.998;2023-03-01T10:34:29;99710.78;;;22.47
45701;BMP280;36277;32.852;-116.998;2023-03-01T10:39:55;99684.72;;;22.43
45701;BMP280;36277;32.852;-116.998;2023-03-01T10:42:29;99690.22;;;22.43
45701;BMP280;36277;32.852;-116.998;2023-03-01T10:44:57;99689.97;;;22.38
45701;BMP280;36277;32.852;-116.998;2023-03-01T10:47:26;99670.72;;;22.38
45701;BMP280;36277;32.852;-116.998;2023-03-01T10:50:01;99680.84;;;22.37
45701;BMP280;36277;32.852;-116.998;2023-03-01T10:52:37;99676.22;;;22.38
45701;BMP280;36277;32.852;-116.998;2023-03-01T10:55:24;99666.44;;;22.35
45701;BMP280;36277;32.852;-116.998;2023-03-01T10:58:19;99671.13;;;22.35
45701;BMP280;36277;32.852;-116.998;2023-03-01T11:03:18;99661.72;;;22.29
45701;BMP280;36277;32.852;-116.998;2023-03-01T11:05:55;99657.72;;;22.32
45701;BMP280;36277;32.852;-116.998;2023-03-01T11:16:40;99633.34;;;22.29
45701;BMP280;36277;32.852;-116.998;2023-03-01T11:22:02;99622.28;;;22.22
45701;BMP280;36277;32.852;-116.998;2023-03-01T11:29:44;99605.75;;;22.16
45701;BMP280;36277;32.852;-116.998;2023-03-01T11:32:14;99595.78;;;22.15
45701;BMP280;36277;32.852;-116.998;2023-03-01T11:43:45;99587.94;;;22.12
45701;BMP280;36277;32.852;-116.998;2023-03-01T11:57:32;99573.25;;;22.05
45701;BMP280;36277;32.852;-116.998;2023-03-01T12:03:22;99583.44;;;21.90
45701;BMP280;36277;32.852;-116.998;2023-03-01T12:08:35;99574.16;;;21.91
45701;BMP280;36277;32.852;-116.998;2023-03-01T12:19:16;99577.00;;;21.83
45701;BMP280;36277;32.852;-116.998;2023-03-01T12:22:25;99573.00;;;21.86
45701;BMP280;36277;32.852;-116.998;2023-03-01T12:30:23;99552.28;;;21.83
45701;BMP280;36277;32.852;-116.998;2023-03-01T12:33:17;99546.13;;;21.81
45701;BMP280;36277;32.852;-116.998;2023-03-01T12:41:36;99522.66;;;21.79
45701;BMP280;36277;32.852;-116.998;2023-03-01T12:49:33;99537.59;;;21.76
45701;BMP280;36277;32.852;-116.998;2023-03-01T12:54:37;99533.75;;;21.71
45701;BMP280;36277;32.852;-116.998;2023-03-01T12:57:17;99528.69;;;21.74
45701;BMP280;36277;32.852;-116.998;2023-03-01T13:00:06;99532.09;;;21.76
45701;BMP280;36277;32.852;-116.998;2023-03-01T13:02:48;99526.34;;;21.71
45701;BMP280;36277;32.852;-116.998;2023-03-01T13:05:36;99521.72;;;21.72
45701;BMP280;36277;32.852;-116.998;2023-03-01T13:10:49;99520.84;;;21.71
45701;BMP280;36277;32.852;-116.998;2023-03-01T13:13:27;99512.59;;;21.71
45701;BMP280;36277;32.852;-116.998;2023-03-01T13:15:54;99507.50;;;21.68
45701;BMP280;36277;32.852;-116.998;2023-03-01T13:20:53;99487.63;;;21.66
45701;BMP280;36277;32.852;-116.998;2023-03-01T13:31:02;99459.25;;;21.59
45701;BMP280;36277;32.852;-116.998;2023-03-01T13:35:59;99464.53;;;21.61
45701;BMP280;36277;32.852;-116.998;2023-03-01T13:41:07;99459.59;;;21.56
45701;BMP280;36277;32.852;-116.998;2023-03-01T13:43:38;99457.81;;;21.63
45701;BMP280;36277;32.852;-116.998;2023-03-01T13:46:21;99465.00;;;21.64
45701;BMP280;36277;32.852;-116.998;2023-03-01T13:48:51;99485.44;;;21.62
45701;BMP280;36277;32.852;-116.998;2023-03-01T13:51:25;99474.47;;;21.62
45701;BMP280;36277;32.852;-116.998;2023-03-01T13:53:53;99485.72;;;21.52
45701;BMP280;36277;32.852;-116.998;2023-03-01T13:56:36;99482.59;;;21.55
45701;BMP280;36277;32.852;-116.998;2023-03-01T13:59:12;99486.19;;;21.56
45701;BMP280;36277;32.852;-116.998;2023-03-01T14:01:39;99468.59;;;21.50
45701;BMP280;36277;32.852;-116.998;2023-03-01T14:04:27;99475.72;;;21.59
45701;BMP280;36277;32.852;-116.998;2023-03-01T14:07:13;99475.41;;;21.54
45701;BMP280;36277;32.852;-116.998;2023-03-01T14:09:42;99465.69;;;21.52
45701;BMP280;36277;32.852;-116.998;2023-03-01T14:12:16;99457.22;;;21.53
45701;BMP280;36277;32.852;-116.998;2023-03-01T14:15:10;99454.47;;;21.53
45701;BMP280;36277;32.852;-116.998;2023-03-01T14:20:24;99449.75;;;21.47
45701;BMP280;36277;32.852;-116.998;2023-03-01T14:22:59;99441.81;;;21.52
45701;BMP280;36277;32.852;-116.998;2023-03-01T14:25:37;99443.88;;;21.50
45701;BMP280;36277;32.852;-116.998;2023-03-01T14:28:24;99445.78;;;21.50
45701;BMP280;36277;32.852;-116.998;2023-03-01T14:30:59;99446.34;;;21.45
45701;BMP280;36277;32.852;-116.998;2023-03-01T14:33:28;99454.97;;;21.42
45701;BMP280;36277;32.852;-116.998;2023-03-01T14:36:07;99452.22;;;21.42
45701;BMP280;36277;32.852;-116.998;2023-03-01T14:38:42;99464.44;;;21.40
45701;BMP280;36277;32.852;-116.998;2023-03-01T14:41:18;99466.22;;;21.47
45701;BMP280;36277;32.852;-116.998;2023-03-01T14:43:47;99478.91;;;21.48
45701;BMP280;36277;32.852;-116.998;2023-03-01T14:46:36;99465.84;;;21.50
45701;BMP280;36277;32.852;-116.998;2023-03-01T14:49:11;99455.25;;;21.47
45701;BMP280;36277;32.852;-116.998;2023-03-01T14:51:41;99467.56;;;21.51
45701;BMP280;36277;32.852;-116.998;2023-03-01T14:54:40;99492.53;;;21.56
45701;BMP280;36277;32.852;-116.998;2023-03-01T14:57:26;99488.28;;;21.54
45701;BMP280;36277;32.852;-116.998;2023-03-01T14:59:57;99489.50;;;21.51
45701;BMP280;36277;32.852;-116.998;2023-03-01T15:02:27;99490.84;;;21.55
45701;BMP280;36277;32.852;-116.998;2023-03-01T15:04:57;99496.13;;;21.57
45701;BMP280;36277;32.852;-116.998;2023-03-01T15:07:29;99490.09;;;21.47
45701;BMP280;36277;32.852;-116.998;2023-03-01T15:09:58;99490.63;;;21.57
45701;BMP280;36277;32.852;-116.998;2023-03-01T15:14:55;99485.84;;;21.59
45701;BMP280;36277;32.852;-116.998;2023-03-01T15:20:02;99502.47;;;21.57
45701;BMP280;36277;32.852;-116.998;2023-03-01T15:22:29;99496.63;;;21.60
45701;BMP280;36277;32.852;-116.998;2023-03-01T15:24:56;99499.75;;;21.57
45701;BMP280;36277;32.852;-116.998;2023-03-01T15:27:25;99496.81;;;21.59
45701;BMP280;36277;32.852;-116.998;2023-03-01T15:30:00;99499.38;;;21.60
45701;BMP280;36277;32.852;-116.998;2023-03-01T15:32:37;99502.13;;;21.60
45701;BMP280;36277;32.852;-116.998;2023-03-01T15:35:42;99502.78;;;21.62
45701;BMP280;36277;32.852;-116.998;2023-03-01T15:40:55;99508.81;;;21.58
45701;BMP280;36277;32.852;-116.998;2023-03-01T15:43:40;99507.63;;;21.60
45701;BMP280;36277;32.852;-116.998;2023-03-01T15:46:33;99509.72;;;21.58
45701;BMP280;36277;32.852;-116.998;2023-03-01T15:49:24;99504.75;;;21.54
45701;BMP280;36277;32.852;-116.998;2023-03-01T15:51:54;99509.59;;;21.52
45701;BMP280;36277;32.852;-116.998;2023-03-01T15:54:23;99510.44;;;21.52
45701;BMP280;36277;32.852;-116.998;2023-03-01T15:56:51;99513.56;;;21.49
45701;BMP280;36277;32.852;-116.998;2023-03-01T15:59:18;99507.03;;;21.50